Time;durP1;ratioP1;P1;durP2;ratioP2;P2;SDS_P1;SDS_P2;PMS_P1;PMS_P2;Temp;Humidity;BMP_temperature;BMP_pressure;BME280_temperature;BME280_humidity;BME280_pressure;Samples;Min_cycle;Max_cycle;Signal;HPM_P1;HPM_P2
2024/01/26 00:01:08;;;;;;;3.67;2.63;;;;;;;9.12;58.23;94948.25;5111799;28;20189;-66
2024/01/26 00:03:35;;;;;;;5.67;3.23;;;;;;;9.14;57.96;94957.38;5111118;28;20189;-62
2024/01/26 00:06:02;;;;;;;6.83;3.33;;;;;;;9.09;58.11;94946.75;5111275;28;20196;-69
2024/01/26 00:08:30;;;;;;;9.07;3.20;;;;;;;9.15;57.98;94950.53;5111657;28;20262;-67
2024/01/26 00:10:57;;;;;;;7.33;3.50;;;;;;;8.88;58.22;94915.28;5111805;28;20185;-71
2024/01/26 00:13:24;;;;;;;7.77;3.20;;;;;;;9.18;58.12;94957.94;5113570;28;20181;-66
2024/01/26 00:15:51;;;;;;;4.77;3.10;;;;;;;9.17;58.09;94962.25;5119627;28;20212;-63
2024/01/26 00:18:18;;;;;;;5.57;3.07;;;;;;;9.19;57.93;94962.91;5113570;28;20193;-66
2024/01/26 00:20:44;;;;;;;4.50;2.70;;;;;;;9.21;57.92;94960.28;5115238;28;20196;-68
2024/01/26 00:23:11;;;;;;;4.97;3.07;;;;;;;9.21;57.73;94966.19;5111189;28;20193;-67
2024/01/26 00:25:39;;;;;;;6.90;3.53;;;;;;;9.21;57.66;94968.72;5111369;28;20185;-65
2024/01/26 00:28:06;;;;;;;6.90;3.40;;;;;;;9.23;57.76;94966.03;5110797;28;20737;-66
2024/01/26 00:30:33;;;;;;;4.87;2.93;;;;;;;9.04;57.82;94947.09;5111179;28;20193;-66
2024/01/26 00:33:00;;;;;;;5.97;3.30;;;;;;;9.14;57.88;94956.56;5110971;28;20241;-65
2024/01/26 00:35:28;;;;;;;6.20;3.33;;;;;;;9.24;57.71;94975.31;5110632;28;20212;-67
2024/01/26 00:37:55;;;;;;;3.73;2.93;;;;;;;9.24;57.61;94976.16;5110877;28;20189;-67
2024/01/26 00:40:22;;;;;;;5.70;3.30;;;;;;;9.25;57.89;94971.84;5110479;28;20216;-65
2024/01/26 00:42:50;;;;;;;7.57;3.30;;;;;;;9.23;57.71;94979.59;5110970;28;20181;-64
2024/01/26 00:45:17;;;;;;;10.27;3.63;;;;;;;9.20;57.67;94974.78;5111034;28;20181;-65
2024/01/26 00:47:44;;;;;;;8.00;3.40;;;;;;;9.24;57.55;94973.59;5110424;28;20196;-67
2024/01/26 00:50:11;;;;;;;4.97;3.23;;;;;;;9.24;57.63;94975.31;5110540;28;20236;-66
2024/01/26 00:52:37;;;;;;;6.27;3.37;;;;;;;9.16;57.62;94957.28;5110526;28;20204;-66
2024/01/26 00:55:05;;;;;;;4.83;3.20;;;;;;;9.22;57.67;94972.09;5110390;28;20719;-65
2024/01/26 00:57:32;;;;;;;5.97;3.20;;;;;;;9.21;57.55;94978.94;5110270;28;20270;-62
2024/01/26 01:00:00;;;;;;;8.10;3.37;;;;;;;9.18;57.54;94978.38;5110253;28;20193;-62
2024/01/26 01:02:27;;;;;;;7.50;2.63;;;;;;;9.13;57.50;94983.03;5102552;28;20194;-62
2024/01/26 01:04:54;;;;;;;7.17;3.10;;;;;;;9.13;57.60;94983.84;5110347;28;20185;-64
2024/01/26 01:07:20;;;;;;;4.57;2.90;;;;;;;9.08;57.65;94975.75;5110702;28;20193;-61
2024/01/26 01:09:47;;;;;;;4.93;3.00;;;;;;;9.09;57.56;94984.19;5091775;28;20193;-63
2024/01/26 01:12:14;;;;;;;5.77;3.33;;;;;;;9.05;57.56;94993.84;5110282;28;20193;-64
2024/01/26 01:14:41;;;;;;;5.33;2.87;;;;;;;9.02;57.53;94991.50;5110260;28;20250;-66
2024/01/26 01:17:11;;;;;;;4.80;2.90;;;;;;;8.99;57.73;94979.03;5110203;28;20196;-63
2024/01/26 01:19:37;;;;;;;4.20;2.77;;;;;;;8.95;57.58;94975.09;5109406;28;20288;-62
2024/01/26 01:22:05;;;;;;;3.90;2.83;;;;;;;8.93;57.68;94980.28;5110042;28;20692;-65
2024/01/26 01:24:32;;;;;;;5.90;2.77;;;;;;;8.85;57.52;94975.00;5109927;28;20569;-66
2024/01/26 01:26:59;;;;;;;5.20;2.73;;;;;;;8.85;57.92;94979.28;5109976;28;20197;-63
2024/01/26 01:29:26;;;;;;;4.53;2.50;;;;;;;8.86;57.67;94980.91;5109882;28;20177;-68
2024/01/26 01:31:52;;;;;;;6.10;2.80;;;;;;;8.79;57.52;94978.03;5109882;28;20181;-63
2024/01/26 01:34:21;;;;;;;7.77;3.00;;;;;;;8.82;57.48;94979.53;5109419;28;20192;-65
2024/01/26 01:36:48;;;;;;;4.80;2.70;;;;;;;8.66;57.63;94960.31;5109448;28;20220;-62
2024/01/26 01:39:15;;;;;;;5.63;2.87;;;;;;;8.79;57.57;94988.22;5110362;28;20185;-67
2024/01/26 01:41:47;;;;;;;6.70;2.93;;;;;;;8.76;57.51;94994.38;5109720;28;20192;-68
2024/01/26 01:44:14;;;;;;;7.20;2.63;;;;;;;8.68;57.37;94981.44;5109826;28;20196;-69
2024/01/26 01:46:40;;;;;;;4.17;2.93;;;;;;;8.73;57.40;95001.47;5109556;28;20189;-66
2024/01/26 01:49:08;;;;;;;6.57;2.63;;;;;;;8.72;57.65;95004.91;5109323;28;20203;-68
2024/01/26 01:51:37;;;;;;;3.73;2.63;;;;;;;8.69;57.41;94994.97;5109828;28;20181;-67
2024/01/26 01:54:04;;;;;;;5.73;2.90;;;;;;;8.66;57.59;95001.09;5113741;28;20548;-67
2024/01/26 01:56:31;;;;;;;10.43;2.90;;;;;;;8.65;57.56;95004.59;5113916;28;20822;-66
2024/01/26 01:59:00;;;;;;;11.20;3.17;;;;;;;8.56;57.72;94997.66;5113997;28;20633;-68
2024/01/26 02:01:27;;;;;;;3.93;2.50;;;;;;;8.63;57.56;95006.44;5113479;28;20196;-66
2024/01/26 02:03:54;;;;;;;4.90;2.93;;;;;;;8.61;57.83;95015.97;5113437;28;20181;-68
2024/01/26 02:06:21;;;;;;;7.80;3.60;;;;;;;8.41;57.75;94989.44;5114010;28;20193;-64
2024/01/26 02:08:49;;;;;;;8.17;3.37;;;;;;;8.60;57.80;95010.97;5113602;28;20230;-62
2024/01/26 02:11:16;;;;;;;4.73;2.73;;;;;;;8.59;57.69;95014.44;5113857;28;20181;-69
2024/01/26 02:13:42;;;;;;;6.07;2.80;;;;;;;8.23;57.65;94958.50;5113561;28;20693;-67
2024/01/26 02:16:09;;;;;;;5.10;2.83;;;;;;;8.58;57.88;95016.19;5113679;28;20660;-69
2024/01/26 02:18:36;;;;;;;5.93;2.90;;;;;;;8.57;57.83;95006.13;5113098;28;20191;-65
2024/01/26 02:21:03;;;;;;;5.40;2.63;;;;;;;8.50;57.92;95006.56;5113588;28;20327;-70
2024/01/26 02:23:32;;;;;;;6.27;2.47;;;;;;;8.54;57.82;95010.50;5113456;28;20265;-64
2024/01/26 02:25:59;;;;;;;6.40;2.87;;;;;;;8.32;57.78;94972.28;5113701;28;20192;-65
2024/01/26 02:28:25;;;;;;;7.20;2.77;;;;;;;8.44;57.81;94988.41;5113207;28;20569;-67
2024/01/26 02:30:52;;;;;;;5.00;2.70;;;;;;;8.57;57.27;95003.56;5113285;28;20193;-63
2024/01/26 02:33:19;;;;;;;3.53;2.70;;;;;;;8.37;57.81;94980.41;5113031;28;20193;-65
2024/01/26 02:35:46;;;;;;;5.53;2.73;;;;;;;8.57;57.84;95006.13;5110418;28;20223;-65
2024/01/26 02:38:11;;;;;;;4.13;2.57;;;;;;;8.41;57.70;94983.53;5113311;28;20211;-64
2024/01/26 02:40:40;;;;;;;3.13;2.27;;;;;;;8.47;57.48;94994.06;5112366;28;20857;-68
2024/01/26 02:43:06;;;;;;;6.33;2.70;;;;;;;8.39;57.61;94980.31;5113178;28;20246;-68
2024/01/26 02:45:33;;;;;;;4.20;2.47;;;;;;;8.38;57.63;94976.13;5112778;28;20185;-65
2024/01/26 02:48:00;;;;;;;5.93;2.43;;;;;;;8.43;57.68;94986.78;5113048;28;20196;-66
2024/01/26 02:50:27;;;;;;;7.63;2.97;;;;;;;8.37;57.47;94982.13;5113229;28;20189;-67
2024/01/26 02:52:53;;;;;;;6.53;2.63;;;;;;;8.58;57.53;95010.28;5114038;28;20634;-64
2024/01/26 02:55:20;;;;;;;3.97;2.73;;;;;;;8.57;57.43;95012.00;5101862;28;20221;-64
2024/01/26 02:57:49;;;;;;;5.43;2.30;;;;;;;8.59;57.59;95024.63;5101239;28;20221;-67
2024/01/26 03:00:16;;;;;;;5.23;2.50;;;;;;;8.60;57.32;95022.00;5099081;28;20646;-67
2024/01/26 03:02:43;;;;;;;6.70;3.00;;;;;;;8.38;57.55;94982.03;5110535;28;20270;-70
2024/01/26 03:05:10;;;;;;;2.77;2.57;;;;;;;8.61;57.40;95026.16;5112459;28;20185;-66
2024/01/26 03:07:37;;;;;;;5.10;2.63;;;;;;;8.61;57.42;95012.59;5112582;28;20192;-67
2024/01/26 03:10:06;;;;;;;3.50;2.60;;;;;;;8.71;57.37;95032.16;5112501;28;20189;-64
2024/01/26 03:12:33;;;;;;;4.93;2.40;;;;;;;8.65;57.40;95019.88;5112653;28;20188;-69
2024/01/26 03:15:02;;;;;;;5.10;2.70;;;;;;;8.49;57.06;94989.66;5112598;28;20614;-63
2024/01/26 03:17:28;;;;;;;7.03;2.93;;;;;;;8.73;57.22;95019.31;5113347;28;20189;-66
2024/01/26 03:19:55;;;;;;;5.77;2.27;;;;;;;8.79;57.21;95029.81;5112842;28;20189;-67
2024/01/26 03:22:23;;;;;;;5.03;2.47;;;;;;;8.76;57.20;95019.06;5112572;28;20185;-68
2024/01/26 03:24:50;;;;;;;6.83;3.23;;;;;;;8.83;57.18;95029.59;5112397;28;20566;-66
2024/01/26 03:27:17;;;;;;;3.47;2.40;;;;;;;8.17;57.17;94920.75;5112146;28;20567;-63
2024/01/26 03:29:43;;;;;;;5.73;2.80;;;;;;;8.86;57.19;95026.81;5111963;28;20589;-63
2024/01/26 03:32:12;;;;;;;3.13;2.40;;;;;;;8.87;57.13;95024.16;5111909;28;20193;-61
2024/01/26 03:34:38;;;;;;;5.80;2.60;;;;;;;8.79;57.10;95000.97;5112118;28;20203;-61
2024/01/26 03:37:05;;;;;;;4.80;3.00;;;;;;;8.88;57.14;95020.66;5112247;28;20216;-63
2024/01/26 03:39:32;;;;;;;6.83;2.93;;;;;;;8.88;57.18;95013.00;5111865;28;20193;-65
2024/01/26 03:41:59;;;;;;;4.30;2.57;;;;;;;8.88;57.07;95018.09;5112143;28;20541;-65
2024/01/26 03:44:25;;;;;;;6.30;3.00;;;;;;;8.89;57.09;95006.97;5111960;28;20197;-64
2024/01/26 03:46:52;;;;;;;3.80;2.37;;;;;;;8.90;57.14;95010.34;5111558;28;20578;-66
2024/01/26 03:49:20;;;;;;;3.23;2.83;;;;;;;8.61;57.21;94961.63;5111843;28;20181;-64
2024/01/26 03:51:47;;;;;;;3.53;2.30;;;;;;;8.91;56.96;95015.31;5111910;28;20177;-62
2024/01/26 03:54:14;;;;;;;9.03;2.80;;;;;;;8.91;57.10;95007.69;5111475;28;20189;-65
2024/01/26 03:56:41;;;;;;;5.97;2.70;;;;;;;8.91;56.79;95017.88;5111744;28;20233;-63
2024/01/26 03:59:07;;;;;;;8.07;3.57;;;;;;;8.93;56.93;95015.19;5111801;28;20195;-61
2024/01/26 04:01:34;;;;;;;4.00;2.73;;;;;;;8.83;57.22;94988.78;5111845;28;20262;-64
2024/01/26 04:04:01;;;;;;;5.53;2.30;;;;;;;8.78;57.04;94978.97;5111358;28;20193;-65
2024/01/26 04:06:29;;;;;;;7.37;3.00;;;;;;;8.86;57.28;94991.94;5111632;28;20200;-61
2024/01/26 04:08:58;;;;;;;6.57;3.13;;;;;;;8.87;56.98;94998.63;5111185;28;20208;-64
2024/01/26 04:11:25;;;;;;;7.90;2.70;;;;;;;8.94;56.92;95006.63;5111952;28;20185;-64
2024/01/26 04:13:52;;;;;;;6.80;2.80;;;;;;;8.92;56.96;95011.03;5111007;28;20196;-62
2024/01/26 04:16:19;;;;;;;6.90;2.97;;;;;;;9.00;56.88;95026.56;5111311;28;20223;-64
2024/01/26 04:18:47;;;;;;;7.87;2.80;;;;;;;9.00;56.92;95029.91;5111102;28;20196;-62
2024/01/26 04:21:13;;;;;;;6.33;2.97;;;;;;;9.02;56.91;95022.97;5111392;28;20665;-63
2024/01/26 04:23:42;;;;;;;6.00;2.60;;;;;;;9.04;56.83;95038.94;5110758;28;20223;-63
2024/01/26 04:26:08;;;;;;;7.77;2.90;;;;;;;8.86;56.84;94999.56;5111053;28;20196;-63
2024/01/26 04:28:35;;;;;;;6.63;2.70;;;;;;;8.97;56.84;95021.69;5110991;28;20254;-67
2024/01/26 04:31:02;;;;;;;6.90;2.87;;;;;;;9.08;56.87;95036.97;5111289;28;20212;-69
2024/01/26 04:33:29;;;;;;;4.00;2.50;;;;;;;9.10;56.87;95036.84;5110792;28;20193;-65
2024/01/26 04:35:56;;;;;;;5.73;2.70;;;;;;;9.10;56.75;95039.38;5111272;28;20624;-70
2024/01/26 04:38:23;;;;;;;7.47;2.97;;;;;;;9.12;56.73;95043.47;5111454;28;20185;-67
2024/01/26 04:40:53;;;;;;;3.83;2.57;;;;;;;9.13;56.57;95049.38;5110758;28;20208;-69
2024/01/26 04:43:20;;;;;;;3.93;2.70;;;;;;;9.13;56.35;95050.16;5111141;28;20271;-70
2024/01/26 04:45:47;;;;;;;8.80;2.93;;;;;;;9.14;56.73;95058.63;5110920;28;20577;-66
2024/01/26 04:48:14;;;;;;;3.70;2.40;;;;;;;9.16;56.57;95057.59;5111072;28;20283;-68
2024/01/26 04:50:41;;;;;;;4.77;2.70;;;;;;;9.15;56.69;95053.41;5110440;28;20192;-67
2024/01/26 04:53:08;;;;;;;4.77;2.63;;;;;;;9.17;56.44;95063.50;5110634;28;20210;-67
2024/01/26 04:55:34;;;;;;;8.10;2.90;;;;;;;9.16;56.50;95069.53;5109733;28;20227;-69
2024/01/26 04:58:02;;;;;;;6.63;2.90;;;;;;;8.91;56.52;95015.31;5110227;28;20224;-67
2024/01/26 05:00:30;;;;;;;4.63;2.63;;;;;;;9.10;56.32;95049.59;5110111;28;20722;-71
2024/01/26 05:02:56;;;;;;;4.70;2.53;;;;;;;9.13;56.49;95057.03;5110384;28;20276;-67
2024/01/26 05:05:23;;;;;;;4.03;2.43;;;;;;;9.13;56.48;95044.25;5109621;28;20192;-65
2024/01/26 05:07:50;;;;;;;5.27;2.70;;;;;;;9.16;56.52;95054.22;5109691;28;20258;-63
2024/01/26 05:10:17;;;;;;;3.80;2.50;;;;;;;9.15;56.53;95050.03;5109695;28;20196;-67
2024/01/26 05:12:44;;;;;;;3.90;2.33;;;;;;;9.14;56.47;95059.44;5109788;28;20203;-65
2024/01/26 05:15:12;;;;;;;4.27;2.47;;;;;;;9.05;56.57;95043.09;5110239;28;20185;-67
2024/01/26 05:17:39;;;;;;;8.50;2.57;;;;;;;9.11;56.53;95059.69;5109858;28;20197;-61
2024/01/26 05:20:08;;;;;;;3.23;2.27;;;;;;;9.10;56.28;95063.16;5110207;28;20188;-64
2024/01/26 05:22:35;;;;;;;4.17;2.57;;;;;;;9.09;56.54;95051.34;5110303;28;20538;-63
2024/01/26 05:25:02;;;;;;;7.50;2.93;;;;;;;9.02;56.65;95045.91;5109869;28;20188;-66
2024/01/26 05:27:30;;;;;;;4.53;2.63;;;;;;;9.04;56.54;95059.34;5109407;28;20193;-66
2024/01/26 05:29:57;;;;;;;3.93;2.67;;;;;;;9.03;56.60;95049.28;5110208;28;20211;-63
2024/01/26 05:32:25;;;;;;;5.47;2.97;;;;;;;9.00;56.71;95052.88;5110657;28;20185;-66
2024/01/26 05:34:51;;;;;;;4.37;3.07;;;;;;;8.97;56.56;95050.53;5117979;28;20193;-67
2024/01/26 05:37:18;;;;;;;4.37;2.17;;;;;;;8.95;56.59;95066.91;5112704;28;20221;-69
2024/01/26 05:39:45;;;;;;;6.97;2.67;;;;;;;8.94;56.53;95070.41;5109549;28;20253;-64
2024/01/26 05:42:12;;;;;;;3.27;2.37;;;;;;;8.89;56.55;95057.16;5109867;28;20641;-66
2024/01/26 05:44:38;;;;;;;6.60;3.00;;;;;;;8.89;56.66;95065.63;5109859;28;20193;-67
2024/01/26 05:47:05;;;;;;;3.20;2.50;;;;;;;8.83;56.56;95060.19;5109642;28;20184;-67
2024/01/26 05:49:34;;;;;;;8.83;2.90;;;;;;;8.83;56.45;95071.22;5110179;28;20253;-68
2024/01/26 05:52:01;;;;;;;4.87;2.50;;;;;;;8.82;56.71;95073.88;5109925;28;20274;-63
2024/01/26 05:54:28;;;;;;;7.47;2.90;;;;;;;8.73;56.52;95060.91;5109435;28;20591;-67
2024/01/26 05:56:54;;;;;;;4.13;2.50;;;;;;;8.60;56.54;95039.03;5109328;28;20236;-65
2024/01/26 05:59:21;;;;;;;5.20;2.80;;;;;;;8.80;56.32;95071.44;5109524;28;20197;-65
2024/01/26 06:01:48;;;;;;;3.73;2.60;;;;;;;8.84;56.54;95083.03;5109715;28;20193;-67
2024/01/26 06:04:14;;;;;;;4.10;2.53;;;;;;;8.83;56.48;95075.50;5109091;28;20181;-67
2024/01/26 06:06:43;;;;;;;3.97;2.33;;;;;;;8.82;56.58;95063.69;5109746;28;20196;-67
2024/01/26 06:09:10;;;;;;;4.83;2.73;;;;;;;8.84;56.55;95069.47;5109523;28;20192;-64
2024/01/26 06:11:37;;;;;;;8.83;2.87;;;;;;;8.32;70.45;94956.19;5110089;28;20199;-68
2024/01/26 06:14:03;;;;;;;13.27;3.57;;;;;;;9.49;94.09;95035.44;5110209;28;20181;-66
2024/01/26 06:16:30;;;;;;;5.40;2.10;;;;;;;10.27;88.62;95045.22;5108989;28;20220;-67
2024/01/26 06:18:57;;;;;;;5.43;2.50;;;;;;;10.61;83.54;95052.66;5106745;28;20189;-68
2024/01/26 06:21:24;;;;;;;2.77;2.27;;;;;;;10.65;79.80;95055.75;5106499;28;20241;-67
2024/01/26 06:23:52;;;;;;;5.70;2.33;;;;;;;10.67;75.63;95059.03;5108928;28;20196;-62
2024/01/26 06:26:20;;;;;;;4.63;2.50;;;;;;;10.62;72.80;95063.69;5108509;28;20193;-66
2024/01/26 06:28:47;;;;;;;7.50;3.13;;;;;;;10.54;70.75;95061.78;5104049;28;20193;-66
2024/01/26 06:31:13;;;;;;;4.27;2.77;;;;;;;10.52;69.29;95072.13;5107388;28;20189;-63
2024/01/26 06:33:41;;;;;;;3.43;2.60;;;;;;;10.53;68.25;95072.94;5108381;28;20193;-64
2024/01/26 06:36:08;;;;;;;3.27;2.13;;;;;;;10.50;67.15;95061.22;5107043;28;20193;-64
2024/01/26 06:38:34;;;;;;;5.80;3.10;;;;;;;10.77;66.21;95077.75;5109941;28;20196;-67
2024/01/26 06:41:03;;;;;;;5.80;2.60;;;;;;;11.00;65.17;95073.25;5111776;28;20246;-66
2024/01/26 06:43:29;;;;;;;3.47;2.37;;;;;;;11.26;64.08;95078.69;5112259;28;20297;-61
2024/01/26 06:45:56;;;;;;;7.07;3.37;;;;;;;11.54;63.37;95080.47;5107066;28;20206;-64
2024/01/26 06:48:25;;;;;;;5.10;2.50;;;;;;;11.92;62.98;95072.97;5096365;28;20230;-70
2024/01/26 06:50:52;;;;;;;6.43;2.97;;;;;;;12.34;62.54;95088.00;5094862;28;20638;-70
2024/01/26 06:53:18;;;;;;;5.57;2.67;;;;;;;12.77;62.05;95088.25;5096417;28;20194;-65
2024/01/26 06:55:46;;;;;;;7.40;2.80;;;;;;;13.28;61.54;95089.53;5096218;28;20683;-65
2024/01/26 06:58:14;;;;;;;8.17;2.87;;;;;;;13.81;61.00;95099.03;5092792;28;20213;-64
2024/01/26 07:00:41;;;;;;;3.47;2.43;;;;;;;14.31;60.14;95089.94;5100507;28;20220;-69
2024/01/26 07:03:08;;;;;;;5.77;3.10;;;;;;;14.80;59.17;95090.25;5094486;28;20202;-66
2024/01/26 07:05:34;;;;;;;5.43;2.10;;;;;;;15.18;58.17;95083.81;5101169;28;20197;-71
2024/01/26 07:08:01;;;;;;;7.00;2.90;;;;;;;15.65;57.37;95083.31;5107753;28;20189;-65
2024/01/26 07:10:28;;;;;;;6.67;2.60;;;;;;;15.98;56.11;95079.00;5111458;28;20188;-71
2024/01/26 07:12:55;;;;;;;7.43;2.37;;;;;;;16.49;55.17;95104.59;5107272;28;20239;-66
2024/01/26 07:15:23;;;;;;;7.03;2.90;;;;;;;16.87;54.25;95110.03;5094935;28;20186;-67
2024/01/26 07:17:50;;;;;;;4.67;2.73;;;;;;;17.21;53.34;95102.78;5103920;28;20655;-65
2024/01/26 07:20:19;;;;;;;5.93;2.40;;;;;;;17.45;52.63;95101.09;5111804;28;20223;-66
2024/01/26 07:22:46;;;;;;;5.93;2.33;;;;;;;17.84;51.92;95113.97;5101108;28;20588;-69
2024/01/26 07:25:18;;;;;;;6.47;2.40;;;;;;;18.17;51.11;95118.91;5095094;28;20615;-66
2024/01/26 07:27:45;;;;;;;2.90;2.10;;;;;;;18.52;50.28;95128.66;5096367;28;20216;-68
2024/01/26 07:30:13;;;;;;;5.73;2.37;;;;;;;18.84;49.88;95115.59;5095789;28;20181;-65
2024/01/26 07:32:42;;;;;;;4.37;2.40;;;;;;;19.25;49.13;95131.47;5103543;28;20275;-69
2024/01/26 07:35:09;;;;;;;5.03;2.50;;;;;;;19.60;48.61;95129.91;5107596;28;20189;-63
2024/01/26 07:37:35;;;;;;;3.80;2.47;;;;;;;19.94;47.91;95123.28;5105706;28;20248;-68
2024/01/26 07:40:04;;;;;;;4.03;2.27;;;;;;;20.24;47.38;95127.38;5111675;28;20197;-65
2024/01/26 07:42:31;;;;;;;6.03;2.47;;;;;;;20.45;46.77;95136.16;5109798;28;20193;-63
2024/01/26 07:44:58;;;;;;;4.03;2.13;;;;;;;20.58;46.37;95131.09;5103304;28;20272;-68
2024/01/26 07:47:25;;;;;;;5.25;2.28;;;;;;;20.70;46.28;95134.78;5106138;28;20193;-63
2024/01/26 07:49:53;;;;;;;4.10;2.25;;;;;;;20.77;45.82;95133.03;5110282;28;20180;-62
2024/01/26 07:52:21;;;;;;;6.50;2.35;;;;;;;20.89;45.26;95132.50;5108238;28;20551;-68
2024/01/26 07:54:48;;;;;;;4.00;2.25;;;;;;;21.05;45.11;95135.59;5103326;28;20189;-66
2024/01/26 07:57:15;;;;;;;3.83;2.22;;;;;;;21.13;44.46;95147.66;5107180;28;20319;-63
2024/01/26 07:59:42;;;;;;;5.53;2.50;;;;;;;20.97;44.37;95143.53;5103750;28;20190;-63
2024/01/26 08:02:09;;;;;;;4.85;2.42;;;;;;;20.71;44.48;95144.19;5107047;28;20200;-62
2024/01/26 08:04:36;;;;;;;4.70;2.25;;;;;;;20.41;44.62;95159.09;5102645;28;20178;-63
2024/01/26 08:07:04;;;;;;;3.22;2.10;;;;;;;20.05;44.50;95148.78;5084634;28;20577;-62
2024/01/26 08:09:33;;;;;;;3.60;2.20;;;;;;;19.68;44.98;95142.78;5101610;28;20197;-65
2024/01/26 08:11:59;;;;;;;2.43;2.10;;;;;;;19.29;44.98;95158.66;5101560;28;20186;-66
2024/01/26 08:14:26;;;;;;;5.80;2.53;;;;;;;18.91;44.90;95165.72;5106158;28;20189;-65
2024/01/26 08:16:53;;;;;;;3.50;2.17;;;;;;;18.50;44.70;95166.88;5107037;28;20315;-65
2024/01/26 08:19:20;;;;;;;3.10;2.30;;;;;;;18.11;44.69;95164.41;5094295;28;20186;-65
2024/01/26 08:21:46;;;;;;;5.13;2.37;;;;;;;17.74;44.87;95162.53;5097857;28;20189;-66
2024/01/26 08:24:15;;;;;;;4.40;2.10;;;;;;;17.24;44.90;95127.50;5106758;28;20189;-69
2024/01/26 08:26:43;;;;;;;4.03;2.20;;;;;;;17.27;44.77;95160.75;5109413;28;20200;-68
2024/01/26 08:29:10;;;;;;;4.10;2.17;;;;;;;17.17;44.62;95160.16;5110194;28;20647;-63
2024/01/26 08:31:36;;;;;;;5.37;2.07;;;;;;;16.98;44.55;95157.00;5110048;28;20589;-64
2024/01/26 08:34:03;;;;;;;2.20;2.00;;;;;;;16.72;45.03;95153.78;5097189;28;20212;-66
2024/01/26 08:36:30;;;;;;;4.03;2.23;;;;;;;16.38;45.10;95143.66;5097822;28;20186;-62
2024/01/26 08:38:57;;;;;;;3.50;2.30;;;;;;;16.37;45.21;95155.75;5096280;28;20237;-61
2024/01/26 08:41:25;;;;;;;3.57;2.20;;;;;;;16.31;44.95;95152.03;5092198;28;20208;-68
2024/01/26 08:43:52;;;;;;;5.33;2.67;;;;;;;16.26;44.86;95162.03;5095089;28;20215;-70
2024/01/26 08:46:19;;;;;;;6.60;2.43;;;;;;;16.03;44.91;95159.28;5093619;28;20198;-68
2024/01/26 08:48:45;;;;;;;3.27;2.33;;;;;;;15.91;44.80;95159.75;5108434;28;20196;-68
2024/01/26 08:51:12;;;;;;;7.27;2.87;;;;;;;15.70;44.96;95155.03;5103270;28;20197;-67
2024/01/26 08:53:39;;;;;;;2.93;2.37;;;;;;;15.46;45.31;95153.16;5094422;28;20682;-64
2024/01/26 08:56:06;;;;;;;5.30;2.40;;;;;;;15.32;45.41;95139.88;5099004;28;20229;-63
2024/01/26 08:58:35;;;;;;;3.43;2.50;;;;;;;15.41;45.53;95168.28;5095149;28;20225;-62
2024/01/26 09:01:01;;;;;;;5.57;2.23;;;;;;;15.37;45.22;95162.66;5098786;28;20196;-65
2024/01/26 09:03:28;;;;;;;5.77;2.20;;;;;;;15.35;45.29;95166.34;5105048;28;20186;-70
2024/01/26 09:05:55;;;;;;;6.80;2.60;;;;;;;14.84;45.27;95103.63;5095541;28;20645;-66
2024/01/26 09:08:22;;;;;;;5.37;2.73;;;;;;;15.06;45.50;95163.13;5100493;28;20204;-68
2024/01/26 09:10:49;;;;;;;5.50;2.53;;;;;;;15.01;45.46;95173.09;5107473;28;20253;-70
2024/01/26 09:13:16;;;;;;;4.33;2.47;;;;;;;14.86;45.58;95156.59;5104563;28;20193;-62
2024/01/26 09:15:44;;;;;;;4.70;2.40;;;;;;;14.78;45.74;95162.50;5099672;28;20181;-67
2024/01/26 09:18:10;;;;;;;5.00;2.53;;;;;;;14.60;45.90;95141.16;5103708;28;20221;-66
2024/01/26 09:20:37;;;;;;;5.13;2.23;;;;;;;14.63;45.73;95152.91;5094537;28;20185;-64
2024/01/26 09:23:04;;;;;;;3.47;2.10;;;;;;;14.54;45.90;95152.84;5096303;28;20200;-70
2024/01/26 09:25:31;;;;;;;4.40;2.43;;;;;;;14.48;45.94;95156.03;5105489;28;20186;-69
2024/01/26 09:27:58;;;;;;;3.50;2.13;;;;;;;14.42;45.88;95150.63;5093003;28;20198;-65
2024/01/26 09:30:25;;;;;;;5.07;2.80;;;;;;;14.34;46.00;95143.69;5105124;28;20177;-70
2024/01/26 09:32:53;;;;;;;4.43;2.43;;;;;;;14.31;46.05;95159.41;5109222;28;20177;-66
2024/01/26 09:35:20;;;;;;;3.93;2.17;;;;;;;14.25;46.06;95147.97;5101296;28;20189;-65
2024/01/26 09:37:47;;;;;;;5.13;2.40;;;;;;;14.23;46.05;95154.19;5091872;28;20221;-68
2024/01/26 09:40:14;;;;;;;3.83;2.10;;;;;;;14.19;46.23;95145.97;5092754;28;20213;-63
2024/01/26 09:42:41;;;;;;;3.57;2.30;;;;;;;14.16;46.01;95156.56;5091048;28;20201;-65
2024/01/26 09:45:11;;;;;;;2.23;2.03;;;;;;;14.12;46.19;95155.25;5096121;28;20208;-64
2024/01/26 09:47:40;;;;;;;4.37;2.23;;;;;;;14.05;46.15;95147.31;5098656;28;20186;-66
2024/01/26 09:50:12;;;;;;;6.97;2.20;;;;;;;14.01;46.13;95143.41;5107413;28;20193;-68
2024/01/26 09:52:40;;;;;;;12.23;2.73;;;;;;;14.01;46.11;95143.41;5109113;28;20257;-70
2024/01/26 09:55:09;;;;;;;2.80;2.20;;;;;;;13.98;46.17;95142.88;5098354;28;20194;-65
2024/01/26 09:57:36;;;;;;;4.50;2.47;;;;;;;13.94;46.25;95133.84;5106819;28;20233;-66
2024/01/26 10:00:07;;;;;;;3.13;2.43;;;;;;;13.90;46.09;95127.38;5107685;28;20185;-71
2024/01/26 10:02:33;;;;;;;4.53;2.17;;;;;;;13.85;46.23;95120.13;5108181;28;20260;-66
2024/01/26 10:05:00;;;;;;;6.00;3.10;;;;;;;13.87;46.34;95120.78;5096801;28;20189;-67
2024/01/26 10:07:28;;;;;;;2.77;2.37;;;;;;;13.87;46.01;95122.56;5105787;28;20196;-67
2024/01/26 10:09:56;;;;;;;3.70;2.40;;;;;;;13.74;46.09;95118.59;5106102;28;20200;-65
2024/01/26 10:12:23;;;;;;;4.73;2.57;;;;;;;13.68;46.09;95110.63;5105093;28;20190;-62
2024/01/26 10:14:50;;;;;;;5.33;2.20;;;;;;;13.72;46.06;95119.66;5108081;28;20200;-64
2024/01/26 10:17:18;;;;;;;8.53;3.07;;;;;;;13.56;46.34;95107.50;5110264;27;20272;-68
2024/01/26 10:19:45;;;;;;;4.80;2.40;;;;;;;13.58;46.39;95115.03;5113159;27;20201;-67
2024/01/26 10:22:12;;;;;;;2.23;1.93;;;;;;;13.46;46.60;95107.53;5110172;28;20279;-65
2024/01/26 10:24:40;;;;;;;3.40;2.40;;;;;;;13.54;46.58;95120.47;5112413;28;20169;-66
2024/01/26 10:27:07;;;;;;;3.00;2.37;;;;;;;13.50;46.52;95103.72;5109197;28;20208;-68
2024/01/26 10:29:35;;;;;;;5.13;2.73;;;;;;;13.50;46.48;95126.03;5100708;28;20208;-64
2024/01/26 10:32:03;;;;;;;7.63;2.27;;;;;;;13.32;46.61;95104.66;5101520;28;20562;-65
2024/01/26 10:34:33;;;;;;;4.63;2.70;;;;;;;13.33;46.61;95127.63;5103025;28;20669;-65
2024/01/26 10:37:04;;;;;;;3.67;2.40;;;;;;;13.10;47.00;95100.69;5103615;28;20197;-63
2024/01/26 10:39:36;;;;;;;7.07;2.40;;;;;;;13.16;46.94;95118.88;5098917;28;20225;-67
2024/01/26 10:42:06;;;;;;;7.67;2.50;;;;;;;13.14;46.87;95112.31;5105684;28;20196;-67
2024/01/26 10:44:37;;;;;;;5.03;2.30;;;;;;;13.17;46.88;95112.00;5111468;28;20181;-67
2024/01/26 10:47:05;;;;;;;5.43;2.43;;;;;;;12.83;46.98;95057.88;5109357;28;20219;-67
2024/01/26 10:49:33;;;;;;;5.63;2.07;;;;;;;13.04;46.90;95100.31;5108077;28;20273;-68
2024/01/26 10:52:01;;;;;;;3.53;2.47;;;;;;;12.95;47.02;95103.75;5099915;28;20245;-69
2024/01/26 10:54:28;;;;;;;4.20;2.40;;;;;;;12.79;47.18;95099.22;5104784;28;20246;-69
2024/01/26 10:56:55;;;;;;;4.23;2.63;;;;;;;12.79;47.02;95109.47;5109365;28;20216;-64
2024/01/26 10:59:25;;;;;;;3.63;2.27;;;;;;;12.55;46.98;95079.16;5125373;28;20227;-68
2024/01/26 11:01:53;;;;;;;6.43;3.57;;;;;;;12.72;47.22;95098.16;5108799;28;20200;-69
2024/01/26 11:04:19;;;;;;;5.23;2.30;;;;;;;12.73;47.04;95104.06;5096017;28;20578;-70
2024/01/26 11:06:46;;;;;;;6.93;2.30;;;;;;;12.75;47.05;95103.00;5097400;28;20193;-70
2024/01/26 11:09:15;;;;;;;4.97;2.87;;;;;;;12.76;47.08;95093.53;5103947;28;20202;-69
2024/01/26 11:11:42;;;;;;;4.13;2.70;;;;;;;12.71;46.76;95073.44;5109715;28;20201;-70
2024/01/26 11:14:12;;;;;;;4.57;2.43;;;;;;;12.95;46.78;95097.78;5109730;28;20199;-70
2024/01/26 11:16:43;;;;;;;6.23;2.10;;;;;;;12.86;46.72;95067.81;5107775;27;20193;-72
2024/01/26 11:19:22;;;;;;;3.67;2.23;;;;;;;13.14;46.57;95096.91;5107927;28;20246;-70
2024/01/26 11:21:49;;;;;;;2.90;2.33;;;;;;;13.18;46.49;95099.03;5101897;28;20201;-69
2024/01/26 11:24:17;;;;;;;4.30;2.53;;;;;;;13.21;46.53;95098.75;5095437;28;20193;-70
2024/01/26 11:26:56;;;;;;;4.77;2.50;;;;;;;13.25;46.33;95096.72;5103958;28;20197;-70
2024/01/26 11:29:23;;;;;;;2.47;2.20;;;;;;;13.34;46.07;95095.03;5110890;28;20347;-64
2024/01/26 11:31:52;;;;;;;3.27;2.20;;;;;;;13.07;46.21;95035.81;5111422;28;20197;-68
2024/01/26 11:34:19;;;;;;;3.97;2.83;;;;;;;12.71;46.14;94978.50;5103355;28;20193;-67
2024/01/26 11:36:46;;;;;;;4.13;2.10;;;;;;;13.47;46.16;95086.06;5111115;28;20189;-66